createdAt,value
2018-10-18T00:01:40.374Z,6.67
2018-10-18T00:04:08.457Z,7.63
2018-10-18T00:06:36.546Z,7.47
2018-10-18T00:09:07.804Z,7.90
2018-10-18T00:11:35.964Z,7.07
2018-10-18T00:14:04.228Z,7.60
2018-10-18T00:16:32.281Z,7.03
2018-10-18T00:19:00.385Z,6.90
2018-10-18T00:21:28.449Z,7.10
2018-10-18T00:23:56.729Z,7.20
2018-10-18T00:26:24.800Z,6.93
2018-10-18T00:28:52.840Z,6.83
2018-10-18T00:31:20.914Z,8.33
2018-10-18T00:33:49.060Z,8.30
2018-10-18T00:36:17.205Z,6.77
2018-10-18T00:38:45.358Z,6.43
2018-10-18T00:41:13.517Z,7.10
2018-10-18T00:43:41.646Z,7.50
2018-10-18T00:46:09.775Z,8.27
2018-10-18T00:48:37.882Z,8.87
2018-10-18T00:51:06.263Z,7.90
2018-10-18T00:53:34.480Z,6.70
2018-10-18T00:56:02.619Z,6.87
2018-10-18T00:58:30.687Z,7.00
2018-10-18T01:00:58.797Z,7.27
2018-10-18T01:03:26.980Z,7.87
2018-10-18T01:05:55.089Z,7.87
2018-10-18T01:08:23.134Z,7.40
2018-10-18T01:10:51.242Z,7.47
2018-10-18T01:13:19.510Z,7.77
2018-10-18T01:15:47.634Z,7.73
2018-10-18T01:18:15.903Z,8.80
2018-10-18T01:20:43.971Z,7.13
2018-10-18T01:23:12.208Z,8.47
2018-10-18T01:25:40.277Z,7.93
2018-10-18T01:28:08.356Z,7.37
2018-10-18T01:30:36.450Z,8.20
2018-10-18T01:33:04.934Z,7.20
2018-10-18T01:35:33.073Z,7.80
2018-10-18T01:38:01.244Z,6.60
2018-10-18T01:40:29.348Z,8.13
2018-10-18T01:42:57.536Z,8.60
2018-10-18T01:45:25.844Z,7.30
2018-10-18T01:47:54.010Z,7.23
2018-10-18T01:50:22.072Z,6.93
2018-10-18T01:52:50.242Z,7.67
2018-10-18T01:55:18.585Z,7.93
2018-10-18T01:57:46.743Z,7.50
2018-10-18T02:00:14.880Z,7.63
2018-10-18T02:02:42.945Z,8.23
2018-10-18T02:05:11.075Z,8.47
2018-10-18T02:07:39.170Z,7.97
2018-10-18T02:10:07.309Z,7.80
2018-10-18T02:12:35.497Z,6.97
2018-10-18T02:15:03.780Z,7.10
2018-10-18T02:17:31.940Z,8.40
2018-10-18T02:20:00.077Z,6.77
2018-10-18T02:22:28.233Z,6.87
2018-10-18T02:24:56.509Z,7.60
2018-10-18T02:27:24.646Z,7.50
2018-10-18T02:29:52.913Z,7.57
2018-10-18T02:32:21.143Z,8.93
2018-10-18T02:34:49.317Z,7.73
2018-10-18T02:37:17.477Z,8.57
2018-10-18T02:39:45.649Z,8.07
2018-10-18T02:42:13.819Z,7.47
2018-10-18T02:44:42.033Z,8.20
2018-10-18T02:47:10.165Z,7.80
2018-10-18T02:49:38.294Z,7.53
2018-10-18T02:52:06.440Z,7.90
2018-10-18T02:54:34.630Z,8.67
2018-10-18T02:57:02.796Z,7.87
2018-10-18T02:59:30.912Z,8.63
2018-10-18T03:01:58.960Z,8.70
2018-10-18T03:04:27.048Z,8.70
2018-10-18T03:06:55.151Z,8.70
2018-10-18T03:09:23.329Z,8.43
2018-10-18T03:11:51.506Z,8.13
2018-10-18T03:14:19.640Z,9.17
2018-10-18T03:16:47.808Z,7.93
2018-10-18T03:19:16.064Z,8.27
2018-10-18T03:21:44.315Z,8.30
2018-10-18T03:24:13.636Z,8.63
2018-10-18T03:26:41.745Z,9.17
2018-10-18T03:29:09.923Z,7.80
2018-10-18T03:31:38.065Z,8.70
2018-10-18T03:34:06.698Z,8.97
2018-10-18T03:36:34.936Z,8.17
2018-10-18T03:39:04.752Z,8.30
2018-10-18T03:41:32.871Z,9.00
2018-10-18T03:44:01.256Z,8.47
2018-10-18T03:46:29.417Z,9.43
2018-10-18T03:48:57.565Z,8.07
2018-10-18T03:51:25.691Z,12.20
2018-10-18T03:53:53.980Z,10.37
2018-10-18T03:56:22.389Z,9.93
2018-10-18T03:58:50.554Z,10.80
2018-10-18T04:01:18.701Z,9.80
2018-10-18T04:03:46.968Z,9.10
2018-10-18T04:06:16.037Z,8.57
2018-10-18T04:08:44.265Z,8.57
2018-10-18T04:11:12.426Z,8.27
2018-10-18T04:13:40.712Z,7.73
2018-10-18T04:16:08.834Z,7.47
2018-10-18T04:18:36.946Z,8.30
2018-10-18T04:21:05.263Z,7.43
2018-10-18T04:23:34.278Z,7.93
2018-10-18T04:26:03.207Z,8.33
2018-10-18T04:28:32.071Z,7.90
2018-10-18T04:31:01.126Z,7.63
2018-10-18T04:33:29.389Z,8.50
2018-10-18T04:35:57.583Z,8.43
2018-10-18T04:38:25.949Z,8.20
2018-10-18T04:40:54.033Z,9.37
2018-10-18T04:43:22.374Z,8.47
2018-10-18T04:45:50.521Z,8.17
2018-10-18T04:48:18.925Z,8.77
2018-10-18T04:50:47.181Z,8.83
2018-10-18T04:53:15.249Z,8.67
2018-10-18T04:55:43.604Z,8.07
2018-10-18T04:58:11.762Z,8.07
2018-10-18T05:00:39.966Z,8.57
2018-10-18T05:03:08.449Z,8.00
2018-10-18T05:05:49.363Z,7.80
2018-10-18T05:08:17.945Z,7.67
2018-10-18T05:10:46.556Z,7.67
2018-10-18T05:13:15.431Z,8.17
2018-10-18T05:15:43.930Z,7.80
2018-10-18T05:18:12.201Z,8.40
2018-10-18T05:20:40.991Z,8.33
2018-10-18T05:23:09.702Z,8.57
2018-10-18T05:25:38.522Z,6.93
2018-10-18T05:28:07.730Z,8.30
2018-10-18T05:30:36.381Z,7.97
2018-10-18T05:33:05.191Z,8.77
2018-10-18T05:41:34.613Z,8.43
2018-10-18T06:01:58.855Z,8.17
2018-10-18T06:22:22.673Z,8.30
2018-10-18T06:39:46.222Z,8.63
2018-10-18T06:42:14.396Z,9.10
2018-10-18T06:44:42.725Z,8.67
2018-10-18T06:47:11.248Z,7.97
2018-10-18T06:49:39.306Z,7.37
2018-10-18T06:52:07.604Z,8.83
2018-10-18T06:54:35.891Z,8.67
2018-10-18T06:57:05.128Z,7.77
2018-10-18T06:59:33.531Z,8.73
2018-10-18T07:02:02.827Z,7.27
2018-10-18T07:04:31.332Z,7.90
2018-10-18T07:06:59.628Z,12.00
2018-10-18T07:09:28.053Z,8.37
2018-10-18T07:11:56.541Z,8.17
2018-10-18T07:14:25.360Z,9.20
2018-10-18T07:16:54.441Z,10.10
2018-10-18T07:19:22.926Z,12.80
2018-10-18T07:21:51.322Z,11.73
2018-10-18T07:24:19.892Z,9.70
2018-10-18T07:26:48.792Z,11.60
2018-10-18T07:29:17.369Z,27.13
2018-10-18T07:31:45.878Z,20.30
2018-10-18T07:34:15.407Z,12.80
2018-10-18T07:36:43.955Z,19.70
2018-10-18T07:39:14.386Z,15.93
2018-10-18T07:41:43.907Z,21.03
2018-10-18T07:44:12.630Z,10.67
2018-10-18T07:46:41.131Z,11.70
2018-10-18T07:49:09.538Z,14.97
2018-10-18T07:51:38.039Z,10.77
2018-10-18T07:54:06.633Z,20.37
2018-10-18T07:56:35.061Z,19.73
2018-10-18T07:59:03.831Z,6.47
2018-10-18T08:01:32.495Z,9.47
2018-10-18T08:04:01.782Z,8.33
2018-10-18T08:06:30.988Z,7.67
2018-10-18T08:08:59.513Z,9.77
2018-10-18T08:11:28.304Z,10.80
2018-10-18T08:13:56.738Z,14.97
2018-10-18T08:16:25.170Z,9.40
2018-10-18T08:18:54.631Z,9.00
2018-10-18T08:21:23.648Z,20.83
2018-10-18T08:23:52.317Z,11.37
2018-10-18T08:26:20.732Z,8.37
2018-10-18T08:28:49.305Z,8.10
2018-10-18T08:31:18.143Z,7.83
2018-10-18T08:33:46.631Z,8.53
2018-10-18T08:36:15.105Z,7.73
2018-10-18T08:38:43.416Z,7.93
2018-10-18T08:41:12.170Z,7.27
2018-10-18T08:43:40.809Z,7.37
2018-10-18T08:46:09.494Z,6.40
2018-10-18T08:48:38.778Z,8.70
2018-10-18T08:51:07.184Z,7.17
2018-10-18T08:53:35.615Z,6.97
2018-10-18T08:56:04.670Z,7.07
2018-10-18T08:58:33.580Z,6.73
2018-10-18T09:01:02.850Z,6.97
2018-10-18T09:03:31.582Z,6.73
2018-10-18T09:06:00.661Z,6.77
2018-10-18T09:08:29.088Z,6.70
2018-10-18T09:10:57.433Z,6.03
2018-10-18T09:13:26.638Z,6.57
2018-10-18T09:15:55.525Z,6.20
2018-10-18T09:18:23.963Z,6.67
2018-10-18T09:20:52.387Z,6.97
2018-10-18T09:23:20.955Z,6.50
2018-10-18T09:25:49.474Z,6.07
2018-10-18T09:28:18.186Z,6.13
2018-10-18T09:30:46.692Z,8.13
2018-10-18T09:33:15.498Z,6.67
2018-10-18T09:35:44.222Z,6.90
2018-10-18T09:38:12.653Z,5.83
2018-10-18T09:40:41.134Z,6.70
2018-10-18T09:43:09.679Z,6.50
2018-10-18T09:45:38.746Z,6.43
2018-10-18T09:48:07.472Z,5.90
2018-10-18T09:50:35.900Z,5.83
2018-10-18T09:53:04.358Z,6.47
2018-10-18T09:55:33.193Z,13.67
2018-10-18T09:58:01.541Z,34.40
2018-10-18T10:00:35.564Z,14.90
2018-10-18T10:03:10.621Z,7.90
2018-10-18T10:05:39.114Z,5.80
2018-10-18T10:08:07.694Z,8.33
2018-10-18T10:10:36.551Z,5.93
2018-10-18T10:13:05.318Z,5.93
2018-10-18T10:15:33.732Z,7.17
2018-10-18T10:18:02.541Z,6.60
2018-10-18T10:20:30.917Z,5.23
2018-10-18T10:22:59.560Z,5.93
2018-10-18T10:25:28.206Z,6.27
2018-10-18T10:27:57.303Z,7.40
2018-10-18T10:30:26.863Z,6.70
2018-10-18T10:32:55.256Z,7.00
2018-10-18T10:35:23.523Z,7.17
2018-10-18T10:37:51.765Z,5.40
2018-10-18T10:40:20.012Z,6.87
2018-10-18T10:42:48.195Z,7.30
2018-10-18T10:45:16.667Z,6.10
2018-10-18T10:47:44.873Z,6.77
2018-10-18T10:50:13.144Z,6.47
2018-10-18T10:52:41.391Z,7.40
2018-10-18T10:55:11.317Z,7.17
2018-10-18T10:57:39.779Z,6.73
2018-10-18T11:00:08.253Z,6.30
2018-10-18T11:02:36.591Z,6.07
2018-10-18T11:05:05.624Z,6.13
2018-10-18T11:07:33.962Z,6.47
2018-10-18T11:10:03.225Z,6.37
2018-10-18T11:12:31.717Z,6.60
2018-10-18T11:15:00.131Z,5.77
2018-10-18T11:17:28.330Z,6.53
2018-10-18T11:19:56.735Z,6.63
2018-10-18T11:22:24.936Z,6.50
2018-10-18T11:24:53.221Z,6.30
2018-10-18T11:27:21.542Z,5.93
2018-10-18T11:29:49.784Z,5.30
2018-10-18T11:32:17.994Z,6.03
2018-10-18T11:34:46.412Z,6.30
2018-10-18T11:37:14.603Z,6.17
2018-10-18T11:39:42.893Z,5.80
2018-10-18T11:42:11.295Z,6.10
2018-10-18T11:44:40.634Z,5.70
2018-10-18T11:47:10.760Z,6.70
2018-10-18T11:49:39.526Z,7.00
2018-10-18T11:52:07.880Z,7.03
2018-10-18T11:54:36.042Z,6.47
2018-10-18T11:57:04.431Z,6.33
2018-10-18T11:59:32.622Z,6.50
2018-10-18T12:02:00.957Z,6.37
2018-10-18T12:04:29.469Z,5.57
2018-10-18T12:06:57.719Z,6.93
2018-10-18T12:09:26.386Z,5.43
2018-10-18T12:11:54.818Z,6.77
2018-10-18T12:14:23.197Z,7.17
2018-10-18T12:16:51.834Z,6.37
2018-10-18T12:19:21.396Z,7.10
2018-10-18T12:21:49.966Z,6.60
2018-10-18T12:24:18.343Z,6.23
2018-10-18T12:26:46.768Z,5.83
2018-10-18T12:29:15.294Z,6.50
2018-10-18T12:31:43.615Z,7.03
2018-10-18T12:34:11.922Z,6.33
2018-10-18T12:36:40.299Z,6.23
2018-10-18T12:39:09.248Z,5.87
2018-10-18T12:41:37.777Z,6.87
2018-10-18T12:44:05.989Z,5.83
2018-10-18T12:46:34.336Z,6.73
2018-10-18T12:49:02.729Z,7.67
2018-10-18T12:51:31.171Z,7.03
2018-10-18T12:53:59.405Z,6.67
2018-10-18T12:56:27.678Z,6.80
2018-10-18T12:58:55.960Z,6.73
2018-10-18T13:01:24.462Z,6.23
2018-10-18T13:03:53.062Z,7.27
2018-10-18T13:06:21.567Z,7.13
2018-10-18T13:08:49.780Z,7.60
2018-10-18T13:11:18.013Z,6.43
2018-10-18T13:13:46.358Z,6.60
2018-10-18T13:16:14.722Z,11.27
2018-10-18T13:18:43.159Z,6.90
2018-10-18T13:21:11.748Z,7.40
2018-10-18T13:23:40.164Z,6.33
2018-10-18T13:26:08.711Z,6.07
2018-10-18T13:28:37.163Z,5.83
2018-10-18T13:31:05.637Z,7.07
2018-10-18T13:33:33.887Z,7.00
2018-10-18T13:36:02.223Z,6.60
2018-10-18T13:38:30.467Z,5.87
2018-10-18T13:40:58.872Z,6.40
2018-10-18T13:43:27.388Z,6.27
2018-10-18T13:45:56.186Z,6.87
2018-10-18T13:48:24.667Z,5.57
2018-10-18T13:50:53.308Z,6.43
2018-10-18T13:53:21.484Z,6.97
2018-10-18T13:55:50.113Z,7.83
2018-10-18T13:58:18.705Z,7.43
2018-10-18T14:00:47.093Z,6.77
2018-10-18T14:03:15.411Z,5.37
2018-10-18T14:05:43.849Z,5.83
2018-10-18T14:08:12.304Z,5.20
2018-10-18T14:10:40.636Z,5.70
2018-10-18T14:13:09.083Z,4.97
2018-10-18T14:15:37.491Z,6.17
2018-10-18T14:18:05.719Z,6.63
2018-10-18T14:20:33.946Z,5.77
2018-10-18T14:23:02.667Z,5.77
2018-10-18T14:25:31.102Z,6.00
2018-10-18T14:27:59.535Z,6.20
2018-10-18T14:30:27.951Z,5.77
2018-10-18T14:32:56.104Z,5.83
2018-10-18T14:35:24.696Z,5.93
2018-10-18T14:37:53.443Z,5.33
2018-10-18T14:40:21.968Z,6.57
2018-10-18T14:42:50.461Z,6.20
2018-10-18T14:45:18.910Z,5.00
2018-10-18T14:47:47.376Z,5.53
2018-10-18T14:50:15.806Z,6.87
2018-10-18T14:52:44.426Z,6.17
2018-10-18T14:55:13.085Z,5.80
2018-10-18T14:57:41.638Z,6.00
2018-10-18T15:00:11.683Z,5.43
2018-10-18T15:02:40.108Z,5.80
2018-10-18T15:05:09.875Z,6.23
2018-10-18T15:07:39.227Z,6.43
2018-10-18T15:10:09.594Z,5.93
2018-10-18T15:12:38.125Z,5.73
2018-10-18T15:15:08.571Z,6.70
2018-10-18T15:17:37.638Z,6.67
2018-10-18T15:20:07.275Z,5.80
2018-10-18T15:22:35.923Z,5.77
2018-10-18T15:25:06.381Z,6.57
2018-10-18T15:27:35.708Z,7.73
2018-10-18T15:30:05.656Z,6.87
2018-10-18T15:32:34.445Z,6.93
2018-10-18T15:35:03.262Z,7.43
2018-10-18T15:37:31.892Z,6.37
2018-10-18T15:40:00.756Z,7.40
2018-10-18T15:42:29.462Z,7.37
2018-10-18T15:44:58.205Z,7.87
2018-10-18T15:47:26.867Z,6.87
2018-10-18T15:49:55.762Z,6.77
2018-10-18T15:52:24.475Z,6.90
2018-10-18T15:54:53.040Z,6.37
2018-10-18T15:57:21.866Z,7.63
2018-10-18T15:59:50.795Z,7.03
2018-10-18T16:02:20.056Z,6.63
2018-10-18T16:04:49.014Z,8.30
2018-10-18T16:07:18.017Z,5.57
2018-10-18T16:09:46.863Z,7.90
2018-10-18T16:12:16.092Z,7.00
2018-10-18T16:14:45.523Z,6.60
2018-10-18T16:17:14.830Z,7.63
2018-10-18T16:19:43.755Z,13.60
2018-10-18T16:22:12.800Z,14.57
2018-10-18T16:24:42.335Z,8.60
2018-10-18T16:27:11.620Z,15.87
2018-10-18T16:29:40.508Z,17.57
2018-10-18T16:32:09.668Z,13.77
2018-10-18T16:34:38.649Z,11.20
2018-10-18T16:37:07.616Z,20.93
2018-10-18T16:39:37.002Z,18.10
2018-10-18T16:42:05.933Z,18.03
2018-10-18T16:44:34.897Z,19.07
2018-10-18T16:47:04.440Z,19.37
2018-10-18T16:49:33.827Z,18.13
2018-10-18T16:52:02.872Z,18.03
2018-10-18T16:54:32.093Z,19.30
2018-10-18T16:57:01.257Z,20.77
2018-10-18T16:59:30.412Z,21.23
2018-10-18T17:01:59.627Z,19.03
2018-10-18T17:04:28.929Z,18.43
2018-10-18T17:06:57.835Z,19.10
2018-10-18T17:12:01.383Z,20.87
2018-10-18T17:14:30.670Z,20.50
2018-10-18T17:17:00.506Z,19.97
2018-10-18T17:19:29.448Z,15.97
2018-10-18T17:21:58.099Z,17.87
2018-10-18T17:24:26.848Z,17.30
2018-10-18T17:26:55.779Z,17.83
2018-10-18T17:29:24.299Z,18.97
2018-10-18T17:31:52.905Z,18.60
2018-10-18T17:34:21.377Z,18.37
2018-10-18T17:36:49.877Z,17.23
2018-10-18T17:39:18.825Z,18.33
2018-10-18T17:41:47.299Z,20.47
2018-10-18T17:44:16.105Z,17.77
2018-10-18T17:46:44.604Z,18.40
2018-10-18T17:49:13.243Z,17.90
2018-10-18T17:51:42.170Z,17.73
2018-10-18T17:54:10.922Z,17.73
2018-10-18T17:56:39.536Z,16.63
2018-10-18T17:59:08.187Z,16.83
2018-10-18T18:01:36.831Z,16.93
2018-10-18T18:04:05.877Z,16.73
2018-10-18T18:06:34.603Z,18.37
2018-10-18T18:09:04.033Z,16.83
2018-10-18T18:11:32.565Z,15.23
2018-10-18T18:14:01.728Z,15.77
2018-10-18T18:16:30.693Z,15.53
2018-10-18T18:18:59.316Z,16.13
2018-10-18T18:21:27.734Z,15.87
2018-10-18T18:23:56.396Z,15.90
2018-10-18T18:26:32.545Z,16.27
2018-10-18T18:28:53.853Z,15.40
2018-10-18T18:31:22.918Z,14.73
2018-10-18T18:33:51.142Z,14.47
2018-10-18T18:36:19.494Z,13.33
2018-10-18T18:38:48.388Z,14.30
2018-10-18T18:41:16.974Z,11.83
2018-10-18T18:43:45.852Z,11.57
2018-10-18T18:46:15.160Z,11.07
2018-10-18T18:48:43.754Z,12.30
2018-10-18T18:51:12.223Z,12.30
2018-10-18T18:53:40.920Z,11.30
2018-10-18T18:56:10.305Z,10.97
2018-10-18T18:58:38.654Z,11.50
2018-10-18T19:01:07.875Z,10.47
2018-10-18T19:03:36.298Z,10.70
2018-10-18T19:06:05.899Z,9.97
2018-10-18T19:08:34.553Z,11.83
2018-10-18T19:11:03.638Z,10.17
2018-10-18T19:13:32.534Z,11.37
2018-10-18T19:16:00.975Z,11.00
2018-10-18T19:18:29.388Z,12.30
2018-10-18T19:20:57.926Z,13.30
2018-10-18T19:23:26.317Z,12.90
2018-10-18T19:25:54.974Z,12.00
2018-10-18T19:28:23.521Z,13.00
2018-10-18T19:30:52.269Z,12.27
2018-10-18T19:33:20.731Z,12.90
2018-10-18T19:35:49.163Z,11.40
2018-10-18T19:38:17.897Z,11.47
2018-10-18T19:40:46.498Z,13.30
2018-10-18T19:43:15.354Z,12.90
2018-10-18T19:45:44.585Z,11.90
2018-10-18T19:48:13.032Z,12.17
2018-10-18T19:50:41.463Z,14.57
2018-10-18T19:53:10.259Z,12.63
2018-10-18T19:55:38.841Z,10.70
2018-10-18T19:58:08.716Z,12.57
2018-10-18T20:00:45.410Z,11.90
2018-10-18T20:03:13.604Z,12.27
2018-10-18T20:05:42.147Z,14.47
2018-10-18T20:08:11.016Z,14.23
2018-10-18T20:10:39.251Z,11.93
2018-10-18T20:13:08.020Z,13.93
2018-10-18T20:15:36.413Z,15.07
2018-10-18T20:18:05.177Z,14.57
2018-10-18T20:20:33.560Z,14.57
2018-10-18T20:23:01.780Z,13.17
2018-10-18T20:25:30.052Z,13.33
2018-10-18T20:27:58.387Z,16.30
2018-10-18T20:30:26.678Z,14.80
2018-10-18T20:32:54.926Z,13.47
2018-10-18T20:35:23.284Z,13.33
2018-10-18T20:37:51.628Z,12.73
2018-10-18T20:40:19.761Z,13.47
2018-10-18T20:42:47.957Z,14.40
2018-10-18T20:45:21.714Z,12.37
2018-10-18T20:47:50.162Z,13.07
2018-10-18T20:50:18.334Z,12.97
2018-10-18T20:52:46.539Z,12.83
2018-10-18T20:55:14.649Z,12.87
2018-10-18T20:57:42.917Z,11.87
2018-10-18T21:00:11.059Z,11.93
2018-10-18T21:02:39.145Z,11.17
2018-10-18T21:05:07.561Z,12.00
2018-10-18T21:07:35.804Z,11.63
2018-10-18T21:10:04.002Z,11.20
2018-10-18T21:12:32.213Z,12.50
2018-10-18T21:15:00.560Z,11.80
2018-10-18T21:17:28.745Z,12.13
2018-10-18T21:19:56.872Z,13.37
2018-10-18T21:22:25.218Z,12.53
2018-10-18T21:24:53.415Z,13.00
2018-10-18T21:27:21.799Z,14.20
2018-10-18T21:29:49.983Z,13.47
2018-10-18T21:32:18.247Z,13.30
2018-10-18T21:34:46.420Z,12.90
2018-10-18T21:37:14.563Z,12.70
2018-10-18T21:39:42.828Z,12.47
2018-10-18T21:42:11.074Z,12.07
2018-10-18T21:44:39.354Z,11.47
2018-10-18T21:47:07.737Z,10.90
2018-10-18T21:49:35.961Z,10.63
2018-10-18T21:52:04.233Z,8.93
2018-10-18T21:54:32.385Z,11.33
2018-10-18T21:57:00.696Z,9.07
2018-10-18T21:59:28.915Z,10.40
2018-10-18T22:01:57.074Z,8.97
2018-10-18T22:04:25.286Z,10.20
2018-10-18T22:06:53.549Z,8.47
2018-10-18T22:09:21.680Z,9.80
2018-10-18T22:11:49.854Z,9.60
2018-10-18T22:14:17.950Z,8.77
2018-10-18T22:16:46.274Z,9.07
2018-10-18T22:19:14.452Z,8.70
2018-10-18T22:21:42.659Z,8.73
2018-10-18T22:24:11.177Z,8.27
2018-10-18T22:26:39.387Z,9.43
2018-10-18T22:29:07.676Z,7.90
2018-10-18T22:31:36.121Z,7.97
2018-10-18T22:34:04.351Z,8.13
2018-10-18T22:36:32.564Z,7.87
2018-10-18T22:39:00.779Z,7.60
2018-10-18T22:41:28.844Z,8.73
2018-10-18T22:43:57.034Z,7.97
2018-10-18T22:46:25.324Z,9.20
2018-10-18T22:48:53.539Z,9.23
2018-10-18T22:51:21.653Z,8.47
2018-10-18T22:53:49.850Z,8.67
2018-10-18T22:56:17.965Z,7.77
2018-10-18T22:58:46.133Z,8.10
2018-10-18T23:01:14.361Z,7.90
2018-10-18T23:03:42.383Z,8.20
2018-10-18T23:06:10.498Z,8.17
2018-10-18T23:08:38.587Z,8.60
2018-10-18T23:11:06.663Z,8.50
2018-10-18T23:13:34.815Z,7.83
2018-10-18T23:16:02.909Z,8.90
2018-10-18T23:18:30.997Z,8.50
2018-10-18T23:20:59.234Z,8.80
2018-10-18T23:23:27.380Z,8.33
2018-10-18T23:25:55.420Z,8.60
2018-10-18T23:28:23.457Z,8.60
2018-10-18T23:30:51.536Z,8.67
2018-10-18T23:33:19.699Z,8.03
2018-10-18T23:35:47.766Z,9.73
2018-10-18T23:38:15.949Z,8.77
2018-10-18T23:40:43.964Z,9.67
2018-10-18T23:43:11.947Z,8.70
2018-10-18T23:45:39.930Z,8.60
2018-10-18T23:48:08.040Z,9.40
2018-10-18T23:50:36.099Z,9.23
2018-10-18T23:53:04.240Z,8.57
2018-10-18T23:55:32.295Z,8.73
2018-10-18T23:58:00.459Z,8.57
